Terminal Aerodrome Forecast
Issued by NWS Twin Cities, MN

Home | Current Version | Previous Version | Graphics & Text | Print | Product List | Glossary On
Versions: 1 2 3 4 5 6 7 8 9 10 11 12 13 14
000
FTUS43 KMPX 140500
TAFEAU
TAF
KEAU 140520Z 1406/1506 18007KT P6SM OVC060
     FM141500 22009KT P6SM BKN060
     FM141900 26010KT P6SM BKN150
     FM150000 27004KT P6SM BKN120=

USA.gov is the U.S. government's official web portal to all federal, state and local government web resources and services.